Time;durP1;ratioP1;P1;durP2;ratioP2;P2;SDS_P1;SDS_P2;PMS_P1;PMS_P2;Temp;Humidity;BMP_temperature;BMP_pressure;BME280_temperature;BME280_humidity;BME280_pressure;Samples;Min_cycle;Max_cycle;Signal;HPM_P1;HPM_P2
2022/03/02 00:00:22;;;;;;;39.33;26.95;;;5.40;99.90;;;;;;4925304;28;28444;-78
2022/03/02 00:02:49;;;;;;;39.25;27.63;;;5.40;99.90;;;;;;4949521;28;20056;-78
2022/03/02 00:05:16;;;;;;;40.55;26.75;;;5.40;99.90;;;;;;4898874;28;110835;-78
2022/03/02 00:07:42;;;;;;;44.08;27.50;;;5.40;99.90;;;;;;4942967;28;20427;-79
2022/03/02 00:10:09;;;;;;;45.88;26.20;;;5.40;99.90;;;;;;4910149;28;154072;-78
2022/03/02 00:12:35;;;;;;;37.58;26.27;;;5.40;99.90;;;;;;4941531;28;20436;-78
2022/03/02 00:15:03;;;;;;;39.15;26.52;;;5.40;99.90;;;;;;4921631;28;98824;-78
2022/03/02 00:17:29;;;;;;;39.83;27.08;;;5.40;99.90;;;;;;4952335;28;20051;-78
2022/03/02 00:19:55;;;;;;;42.55;27.35;;;5.40;99.90;;;;;;4922781;28;116758;-78
2022/03/02 00:22:21;;;;;;;39.65;26.63;;;5.40;99.90;;;;;;4960744;28;20048;-78
2022/03/02 00:24:50;;;;;;;41.00;27.70;;;5.40;99.90;;;;;;4922796;28;204749;-78
2022/03/02 00:27:23;;;;;;;42.65;27.58;;;5.40;99.90;;;;;;4959910;28;20056;-78
2022/03/02 00:29:50;;;;;;;44.20;27.48;;;5.40;99.90;;;;;;4930111;28;20038;-78
2022/03/02 00:32:16;;;;;;;39.60;26.65;;;5.40;99.90;;;;;;4953399;28;20480;-78
2022/03/02 00:34:42;;;;;;;42.55;26.75;;;5.40;99.90;;;;;;4932632;28;20058;-78
2022/03/02 00:37:09;;;;;;;41.00;27.55;;;5.40;99.90;;;;;;4953437;28;20158;-79
2022/03/02 00:39:35;;;;;;;41.78;26.95;;;5.40;99.90;;;;;;4912647;28;89320;-78
2022/03/02 00:42:01;;;;;;;40.28;25.90;;;5.40;99.90;;;;;;4946849;28;20057;-78
2022/03/02 00:44:27;;;;;;;39.22;26.67;;;5.40;99.90;;;;;;4917251;28;236897;-78
2022/03/02 00:46:54;;;;;;;41.58;27.17;;;5.40;99.90;;;;;;4953554;28;20059;-78
2022/03/02 00:49:24;;;;;;;42.40;27.10;;;5.40;99.90;;;;;;4921983;28;152197;-78
2022/03/02 00:51:51;;;;;;;42.15;26.15;;;5.40;99.90;;;;;;4951658;28;20058;-78
2022/03/02 00:54:18;;;;;;;43.40;26.50;;;5.40;99.90;;;;;;4926256;28;115386;-78
2022/03/02 00:56:44;;;;;;;42.00;26.95;;;5.40;99.90;;;;;;4952764;28;20066;-78
2022/03/02 00:59:10;;;;;;;43.08;26.80;;;5.40;99.90;;;;;;4953310;28;35996;-78
2022/03/02 01:01:36;;;;;;;38.95;26.00;;;5.30;99.90;;;;;;4936689;28;20048;-78
2022/03/02 01:04:04;;;;;;;39.83;25.90;;;5.30;99.90;;;;;;4939349;28;267265;-78
2022/03/02 01:06:30;;;;;;;40.90;25.90;;;5.30;99.90;;;;;;4920955;28;20067;-78
2022/03/02 01:08:56;;;;;;;39.05;25.38;;;5.30;99.90;;;;;;4941924;28;248206;-78
2022/03/02 01:11:22;;;;;;;45.17;27.95;;;5.30;99.90;;;;;;4914571;28;20053;-78
2022/03/02 01:13:48;;;;;;;42.85;27.25;;;5.30;99.90;;;;;;4936199;28;267218;-78
2022/03/02 01:16:15;;;;;;;43.63;26.15;;;5.30;99.90;;;;;;4938828;28;20058;-78
2022/03/02 01:18:41;;;;;;;40.58;27.42;;;5.30;99.90;;;;;;4955635;28;20047;-78
2022/03/02 01:21:07;;;;;;;42.03;26.70;;;5.30;99.90;;;;;;4924190;28;223564;-78
2022/03/02 01:23:34;;;;;;;41.63;26.15;;;5.30;99.90;;;;;;4949879;28;20063;-78
2022/03/02 01:26:00;;;;;;;42.25;26.80;;;5.30;99.90;;;;;;4923970;28;47025;-78
2022/03/02 01:28:26;;;;;;;43.00;27.25;;;5.30;99.90;;;;;;4949935;28;20055;-78
2022/03/02 01:30:52;;;;;;;40.90;26.95;;;5.30;99.90;;;;;;4913955;28;126766;-78
2022/03/02 01:33:18;;;;;;;43.85;26.77;;;5.30;99.90;;;;;;4967421;28;20052;-78
2022/03/02 01:35:44;;;;;;;42.33;27.38;;;5.30;99.90;;;;;;4920525;28;144241;-78
2022/03/02 01:38:11;;;;;;;38.00;25.20;;;5.30;99.90;;;;;;4951420;28;20484;-78
2022/03/02 01:40:37;;;;;;;40.65;26.73;;;5.30;99.90;;;;;;4921673;28;84561;-78
2022/03/02 01:43:04;;;;;;;39.55;25.98;;;5.30;99.90;;;;;;4952165;28;20054;-78
2022/03/02 01:45:31;;;;;;;39.35;26.67;;;5.30;99.90;;;;;;4929241;28;45578;-78
2022/03/02 01:48:01;;;;;;;41.00;26.77;;;5.30;99.90;;;;;;4951825;28;20051;-78
2022/03/02 01:50:28;;;;;;;41.70;27.35;;;5.30;99.90;;;;;;4910739;28;119896;-78
2022/03/02 01:52:54;;;;;;;42.03;27.35;;;5.30;99.90;;;;;;4953027;28;20066;-78
2022/03/02 01:55:21;;;;;;;42.88;27.05;;;5.30;99.90;;;;;;4923958;28;149125;-78
2022/03/02 01:57:48;;;;;;;44.08;28.88;;;5.20;99.90;;;;;;4944460;28;20051;-78
2022/03/02 02:00:19;;;;;;;42.00;26.55;;;5.20;99.90;;;;;;4923520;28;39571;-78
2022/03/02 02:02:46;;;;;;;42.53;27.95;;;5.20;99.90;;;;;;4921430;28;20062;-78
2022/03/02 02:05:13;;;;;;;42.88;28.40;;;5.20;99.90;;;;;;4905566;28;201860;-78
2022/03/02 02:07:39;;;;;;;41.42;27.85;;;5.20;99.90;;;;;;4967744;28;20051;-78
2022/03/02 02:10:06;;;;;;;42.42;27.75;;;5.20;99.90;;;;;;4921696;28;188839;-78
2022/03/02 02:12:33;;;;;;;47.85;28.95;;;5.20;99.90;;;;;;4963880;28;20058;-78
2022/03/02 02:14:59;;;;;;;44.03;28.92;;;5.20;99.90;;;;;;4893734;28;239719;-77
2022/03/02 02:17:27;;;;;;;45.80;28.85;;;5.20;99.90;;;;;;4929803;28;20101;-78
2022/03/02 02:19:53;;;;;;;42.22;28.02;;;5.10;99.90;;;;;;4926585;28;20233;-78
2022/03/02 02:22:20;;;;;;;42.33;27.08;;;5.10;99.90;;;;;;4961579;28;20077;-77
2022/03/02 02:24:46;;;;;;;49.88;29.13;;;5.20;99.90;;;;;;4918697;28;129749;-78
2022/03/02 02:27:14;;;;;;;44.75;29.77;;;5.10;99.90;;;;;;4959096;28;20047;-78
2022/03/02 02:29:42;;;;;;;47.70;29.15;;;5.10;99.90;;;;;;4916835;28;143085;-78
2022/03/02 02:32:09;;;;;;;42.83;27.77;;;5.10;99.90;;;;;;4954791;28;20058;-77
2022/03/02 02:34:35;;;;;;;48.65;29.70;;;5.10;99.90;;;;;;4915790;28;35330;-78
2022/03/02 02:37:05;;;;;;;46.75;29.40;;;5.10;99.90;;;;;;4964169;28;20066;-78
2022/03/02 02:39:32;;;;;;;45.28;29.90;;;5.10;99.90;;;;;;4925529;28;202427;-78
2022/03/02 02:42:04;;;;;;;52.35;30.55;;;5.10;99.90;;;;;;4952963;28;20066;-77
2022/03/02 02:44:30;;;;;;;46.70;29.70;;;5.10;99.90;;;;;;4899812;28;153461;-78
2022/03/02 02:46:56;;;;;;;49.53;30.60;;;5.10;99.90;;;;;;4925801;28;20062;-77
2022/03/02 02:49:22;;;;;;;47.80;29.60;;;5.00;99.90;;;;;;4912441;28;251571;-78
2022/03/02 02:51:48;;;;;;;46.28;30.88;;;5.10;99.90;;;;;;4946062;28;20421;-78
2022/03/02 02:54:14;;;;;;;51.05;32.88;;;5.00;99.90;;;;;;4914824;28;134664;-77
2022/03/02 02:56:40;;;;;;;53.63;33.15;;;5.00;99.90;;;;;;4947926;28;20040;-78
2022/03/02 02:59:07;;;;;;;48.20;31.42;;;5.00;99.90;;;;;;4938623;28;262341;-78
2022/03/02 03:01:33;;;;;;;52.17;32.92;;;5.00;99.90;;;;;;4934971;28;20042;-78
2022/03/02 03:03:59;;;;;;;48.75;32.42;;;5.00;99.90;;;;;;4925050;28;260150;-78
2022/03/02 03:06:25;;;;;;;49.50;31.55;;;5.00;99.90;;;;;;4937162;28;20046;-78
2022/03/02 03:08:51;;;;;;;52.03;33.13;;;5.00;99.90;;;;;;4934043;28;263623;-78
2022/03/02 03:11:17;;;;;;;47.78;31.73;;;4.90;99.90;;;;;;4917992;28;20484;-77
2022/03/02 03:13:43;;;;;;;51.95;32.22;;;4.90;99.90;;;;;;4936220;28;20070;-78
2022/03/02 03:16:09;;;;;;;48.47;31.90;;;4.90;99.90;;;;;;4914716;28;20095;-78
2022/03/02 03:18:35;;;;;;;53.63;33.38;;;4.90;99.90;;;;;;4951437;28;20521;-78
2022/03/02 03:21:02;;;;;;;52.00;35.17;;;4.80;99.90;;;;;;4896176;28;160503;-78
2022/03/02 03:23:28;;;;;;;50.00;33.55;;;4.80;99.90;;;;;;4947324;28;20051;-79
2022/03/02 03:25:54;;;;;;;53.78;33.20;;;4.80;99.90;;;;;;4907881;28;131480;-78
2022/03/02 03:28:21;;;;;;;52.10;32.80;;;4.70;99.90;;;;;;4932057;28;20070;-78
2022/03/02 03:30:47;;;;;;;52.22;32.83;;;4.70;99.90;;;;;;4917123;28;124718;-78
2022/03/02 03:33:13;;;;;;;51.42;34.05;;;4.70;99.90;;;;;;4979458;28;20494;-78
2022/03/02 03:35:39;;;;;;;52.40;33.72;;;4.70;99.90;;;;;;4907207;28;79333;-78
2022/03/02 03:38:05;;;;;;;54.67;34.92;;;4.60;99.90;;;;;;4937693;28;20042;-77
2022/03/02 03:40:31;;;;;;;55.25;35.30;;;4.60;99.90;;;;;;4924432;28;161655;-78
2022/03/02 03:42:58;;;;;;;54.40;34.35;;;4.50;99.90;;;;;;4938633;28;20059;-77
2022/03/02 03:45:24;;;;;;;54.08;35.40;;;4.50;99.90;;;;;;4903282;28;152628;-77
2022/03/02 03:47:51;;;;;;;54.03;33.90;;;4.40;99.90;;;;;;4940627;28;20525;-78
2022/03/02 03:50:17;;;;;;;57.58;37.70;;;4.40;99.90;;;;;;4924060;28;20042;-78
2022/03/02 03:52:44;;;;;;;53.65;34.35;;;4.40;99.90;;;;;;4958567;28;20039;-79
2022/03/02 03:55:14;;;;;;;54.97;35.38;;;4.30;99.90;;;;;;4911551;28;179993;-78
2022/03/02 03:57:40;;;;;;;55.05;33.28;;;4.30;99.90;;;;;;4953697;28;20481;-78
2022/03/02 04:00:11;;;;;;;56.75;35.00;;;4.30;99.90;;;;;;4902105;28;20081;-77
2022/03/02 04:02:38;;;;;;;53.30;34.75;;;4.20;99.90;;;;;;4941396;28;20393;-77
2022/03/02 04:05:04;;;;;;;55.10;34.42;;;4.20;99.90;;;;;;4898480;28;224787;-78
2022/03/02 04:07:30;;;;;;;57.63;36.25;;;4.20;99.90;;;;;;4956452;28;20062;-77
2022/03/02 04:09:57;;;;;;;55.42;35.97;;;4.10;99.90;;;;;;4891759;28;39634;-78
2022/03/02 04:12:23;;;;;;;59.33;35.72;;;4.10;99.90;;;;;;4943947;28;20055;-77
2022/03/02 04:14:49;;;;;;;55.88;35.92;;;4.00;99.90;;;;;;4919374;28;270410;-78
2022/03/02 04:17:15;;;;;;;55.08;34.53;;;3.90;99.90;;;;;;4955950;28;20066;-78
2022/03/02 04:19:41;;;;;;;57.42;36.15;;;3.90;99.90;;;;;;4913332;28;119254;-77
2022/03/02 04:22:08;;;;;;;56.85;35.97;;;3.80;99.90;;;;;;4950997;28;20070;-78
2022/03/02 04:24:34;;;;;;;59.97;36.90;;;3.80;99.90;;;;;;4927264;28;60726;-77
2022/03/02 04:27:00;;;;;;;57.50;35.47;;;3.70;99.90;;;;;;4957916;28;20052;-78
2022/03/02 04:29:26;;;;;;;57.03;35.28;;;3.70;99.90;;;;;;4912314;28;209958;-78
2022/03/02 04:31:52;;;;;;;57.67;36.42;;;3.60;99.90;;;;;;4934994;28;20066;-78
2022/03/02 04:34:18;;;;;;;60.00;37.45;;;3.60;99.90;;;;;;4931974;28;139417;-78
2022/03/02 04:36:44;;;;;;;61.42;35.63;;;3.50;99.90;;;;;;4979382;28;20083;-78
2022/03/02 04:39:11;;;;;;;61.22;35.97;;;3.50;99.90;;;;;;4958451;28;250469;-78
2022/03/02 04:41:37;;;;;;;59.45;35.95;;;3.40;99.90;;;;;;4894293;28;20042;-78
2022/03/02 04:44:04;;;;;;;58.42;35.45;;;3.30;99.90;;;;;;4926680;28;255519;-78
2022/03/02 04:46:30;;;;;;;62.22;36.38;;;3.30;99.90;;;;;;4921438;28;20050;-78
2022/03/02 04:48:56;;;;;;;58.10;36.43;;;3.10;99.90;;;;;;4935200;28;259194;-78
2022/03/02 04:51:22;;;;;;;65.13;37.45;;;3.10;99.90;;;;;;4938638;28;20057;-78
2022/03/02 04:53:50;;;;;;;66.00;37.38;;;3.00;99.90;;;;;;4917768;28;267489;-77
2022/03/02 04:56:17;;;;;;;61.63;37.17;;;3.00;99.90;;;;;;4934479;28;20051;-78
2022/03/02 04:58:43;;;;;;;62.53;36.53;;;2.90;99.90;;;;;;4967971;28;20051;-77
2022/03/02 05:01:09;;;;;;;62.10;36.38;;;2.90;99.90;;;;;;4928982;28;20178;-77
2022/03/02 05:03:35;;;;;;;60.55;36.67;;;2.80;99.90;;;;;;4963003;28;20054;-78
2022/03/02 05:06:01;;;;;;;66.20;36.55;;;2.80;99.90;;;;;;4904005;28;104818;-78
2022/03/02 05:08:27;;;;;;;56.45;35.30;;;2.70;99.90;;;;;;4949280;28;20055;-78
2022/03/02 05:10:54;;;;;;;60.50;37.35;;;2.70;99.90;;;;;;4907323;28;106039;-78
2022/03/02 05:13:20;;;;;;;71.30;38.88;;;2.60;99.90;;;;;;4936364;28;20042;-78
2022/03/02 05:15:46;;;;;;;66.43;36.22;;;2.60;99.90;;;;;;4927750;28;105693;-78
2022/03/02 05:18:12;;;;;;;67.65;36.67;;;2.60;99.90;;;;;;4986257;28;20259;-78
2022/03/02 05:20:38;;;;;;;68.60;39.00;;;2.50;99.90;;;;;;4915689;28;264598;-77
2022/03/02 05:23:04;;;;;;;68.20;37.67;;;2.50;99.90;;;;;;4951931;28;20062;-79
2022/03/02 05:25:31;;;;;;;75.07;40.00;;;2.50;99.90;;;;;;4912842;28;37800;-78
2022/03/02 05:27:57;;;;;;;67.20;38.53;;;2.40;99.90;;;;;;4940705;28;20059;-78
2022/03/02 05:30:24;;;;;;;64.13;36.85;;;2.40;99.90;;;;;;4925667;28;45993;-78
2022/03/02 05:32:50;;;;;;;62.33;37.78;;;2.40;99.90;;;;;;4956593;28;20419;-78
2022/03/02 05:35:16;;;;;;;71.18;38.08;;;2.30;99.90;;;;;;4917404;28;271709;-78
2022/03/02 05:37:42;;;;;;;71.72;39.55;;;2.30;99.90;;;;;;4948618;28;20058;-79
2022/03/02 05:40:10;;;;;;;71.32;39.35;;;2.30;99.90;;;;;;4923689;28;20042;-78
2022/03/02 05:42:37;;;;;;;68.22;38.55;;;2.30;99.90;;;;;;4956298;28;20051;-78
2022/03/02 05:45:03;;;;;;;66.03;38.25;;;2.20;99.90;;;;;;4921826;28;198890;-78
2022/03/02 05:47:29;;;;;;;69.47;39.55;;;2.20;99.90;;;;;;4960052;28;20468;-78
2022/03/02 05:49:55;;;;;;;68.60;38.53;;;2.20;99.90;;;;;;4899626;28;42270;-78
2022/03/02 05:52:21;;;;;;;69.45;38.30;;;2.10;99.90;;;;;;4954963;28;20547;-78
2022/03/02 05:54:48;;;;;;;67.30;38.92;;;2.10;99.90;;;;;;4922858;28;83528;-79
2022/03/02 05:57:14;;;;;;;69.47;38.08;;;2.00;99.90;;;;;;4964030;28;20081;-78
2022/03/02 05:59:40;;;;;;;63.63;37.08;;;2.00;99.90;;;;;;4922444;28;139882;-78
2022/03/02 06:02:06;;;;;;;68.40;39.00;;;1.90;99.90;;;;;;4950829;28;20546;-78
2022/03/02 06:04:32;;;;;;;65.75;38.05;;;1.90;99.90;;;;;;4908476;28;85141;-78
2022/03/02 06:06:58;;;;;;;65.55;37.97;;;1.90;99.90;;;;;;4944457;28;20177;-77
2022/03/02 06:09:24;;;;;;;69.93;36.78;;;1.80;99.90;;;;;;4894332;28;145745;-77
2022/03/02 06:11:51;;;;;;;67.70;37.38;;;1.80;99.90;;;;;;4951081;28;20046;-78
2022/03/02 06:14:17;;;;;;;69.03;38.13;;;1.80;99.90;;;;;;4924028;28;247732;-78
2022/03/02 06:16:43;;;;;;;64.63;37.65;;;1.80;99.90;;;;;;4971646;28;20047;-77
2022/03/02 06:19:10;;;;;;;74.70;39.22;;;1.70;99.90;;;;;;4947024;28;214918;-78
2022/03/02 06:21:38;;;;;;;70.95;39.30;;;1.70;99.90;;;;;;4930976;28;20058;-78
2022/03/02 06:24:05;;;;;;;69.68;38.42;;;1.70;99.90;;;;;;4939319;28;253397;-78
2022/03/02 06:26:32;;;;;;;76.00;38.53;;;1.70;99.90;;;;;;4912517;28;20412;-77
2022/03/02 06:28:58;;;;;;;70.47;39.87;;;1.60;99.90;;;;;;4918159;28;252433;-78
2022/03/02 06:31:24;;;;;;;67.65;38.22;;;1.70;99.90;;;;;;4919906;28;20105;-77
2022/03/02 06:33:50;;;;;;;75.68;40.85;;;1.70;99.90;;;;;;4932615;28;267371;-77
2022/03/02 06:36:18;;;;;;;73.15;39.80;;;1.70;99.90;;;;;;4941811;28;20508;-77
2022/03/02 06:38:44;;;;;;;79.30;41.58;;;1.70;99.90;;;;;;4941115;28;261903;-77
2022/03/02 06:41:22;;;;;;;82.10;41.60;;;1.60;99.90;;;;;;4907779;28;20513;-77
2022/03/02 06:44:14;;;;;;;73.93;40.03;;;1.60;99.90;;;;;;4946781;28;261883;-77
2022/03/02 06:46:54;;;;;;;69.95;37.28;;;1.60;99.90;;;;;;4911772;28;20066;-77
2022/03/02 06:49:32;;;;;;;69.43;39.50;;;1.60;99.90;;;;;;4916592;28;20958;-77
2022/03/02 06:52:00;;;;;;;85.55;41.85;;;1.60;99.90;;;;;;4954973;28;20059;-77
2022/03/02 06:54:31;;;;;;;79.18;41.42;;;1.70;99.90;;;;;;4910291;28;259352;-77
2022/03/02 06:57:00;;;;;;;73.70;39.90;;;1.70;99.90;;;;;;4937820;28;20059;-78
2022/03/02 06:59:40;;;;;;;75.22;40.25;;;1.70;99.90;;;;;;4909954;28;154901;-76
2022/03/02 07:02:08;;;;;;;78.72;41.25;;;1.70;99.90;;;;;;4935745;28;20157;-77
2022/03/02 07:04:42;;;;;;;75.57;39.90;;;1.70;99.90;;;;;;4879914;28;129580;-76
2022/03/02 07:07:09;;;;;;;77.40;40.20;;;1.70;99.90;;;;;;4948518;28;20439;-76
2022/03/02 07:09:37;;;;;;;73.80;40.08;;;1.80;99.90;;;;;;4915767;28;89688;-76
2022/03/02 07:12:05;;;;;;;71.13;38.55;;;1.80;99.90;;;;;;4950935;28;20063;-77
2022/03/02 07:14:33;;;;;;;73.60;40.67;;;1.80;99.90;;;;;;4914273;28;20054;-77
2022/03/02 07:17:01;;;;;;;72.07;39.67;;;1.80;99.90;;;;;;4966454;28;20461;-76
2022/03/02 07:19:27;;;;;;;69.18;38.88;;;1.90;99.90;;;;;;4911062;28;269002;-77
2022/03/02 07:22:03;;;;;;;73.30;39.75;;;1.90;99.90;;;;;;4956022;28;20059;-76
2022/03/02 07:24:36;;;;;;;69.80;38.40;;;1.90;99.90;;;;;;4912525;28;79525;-76
2022/03/02 07:27:04;;;;;;;63.10;38.35;;;2.00;99.90;;;;;;4954611;28;20424;-77
2022/03/02 07:29:35;;;;;;;70.38;37.95;;;2.10;99.90;;;;;;4906983;28;165064;-76
2022/03/02 07:32:02;;;;;;;;;;;2.10;99.90;;;;;;4963530;28;20051;-77
2022/03/02 07:34:31;;;;;;;71.40;36.03;;;2.10;99.90;;;;;;4920486;28;94821;-77
2022/03/02 07:36:59;;;;;;;68.10;38.90;;;2.20;99.90;;;;;;4961863;28;20055;-77
2022/03/02 07:39:27;;;;;;;65.35;37.33;;;2.20;99.90;;;;;;4906362;28;120344;-76
2022/03/02 07:41:53;;;;;;;64.38;36.50;;;2.20;99.90;;;;;;4949195;28;20062;-77
2022/03/02 07:44:19;;;;;;;63.03;36.15;;;2.30;99.90;;;;;;4917914;28;219028;-76
2022/03/02 07:46:45;;;;;;;58.25;35.95;;;2.40;99.90;;;;;;4949535;28;20531;-76
2022/03/02 07:49:12;;;;;;;64.15;36.97;;;2.40;99.90;;;;;;4944861;28;128791;-76
2022/03/02 07:51:39;;;;;;;64.20;36.28;;;2.40;99.90;;;;;;4951019;28;20428;-76
2022/03/02 07:54:06;;;;;;;60.03;34.83;;;2.50;99.90;;;;;;4946870;28;250400;-77
2022/03/02 07:56:33;;;;;;;61.67;35.35;;;2.60;99.90;;;;;;4908399;28;21238;-76
2022/03/02 07:59:06;;;;;;;56.37;33.43;;;2.60;99.90;;;;;;4925024;28;266415;-77
2022/03/02 08:01:37;;;;;;;57.47;33.35;;;2.60;99.90;;;;;;4903792;28;20485;-77
2022/03/02 08:04:05;;;;;;;54.97;33.35;;;2.70;99.90;;;;;;4968052;28;262058;-76
2022/03/02 08:06:37;;;;;;;56.70;34.00;;;2.80;99.90;;;;;;4928118;28;20053;-77
2022/03/02 08:09:05;;;;;;;56.20;33.50;;;2.80;99.90;;;;;;4950027;28;253800;-77
2022/03/02 08:11:33;;;;;;;51.13;31.75;;;2.80;99.90;;;;;;4927708;28;20543;-76
2022/03/02 08:14:02;;;;;;;51.78;31.05;;;2.90;99.90;;;;;;4940482;28;255267;-76
2022/03/02 08:16:28;;;;;;;52.95;31.05;;;3.00;99.90;;;;;;4943965;28;20047;-76
2022/03/02 08:18:56;;;;;;;51.28;30.23;;;3.10;99.90;;;;;;4937185;28;266281;-76
2022/03/02 08:21:26;;;;;;;52.67;30.92;;;3.10;99.90;;;;;;4926520;28;20102;-76
2022/03/02 08:23:55;;;;;;;51.15;30.95;;;3.20;99.90;;;;;;4971161;28;268800;-76
2022/03/02 08:26:23;;;;;;;50.15;30.58;;;3.20;99.90;;;;;;4946881;28;20062;-76
2022/03/02 08:29:00;;;;;;;49.50;29.38;;;3.30;99.90;;;;;;4905340;28;268837;-75
2022/03/02 08:31:27;;;;;;;50.17;30.05;;;3.40;99.90;;;;;;4916235;28;20066;-76
2022/03/02 08:33:54;;;;;;;50.13;30.63;;;3.40;99.90;;;;;;4941925;28;272833;-76
2022/03/02 08:36:23;;;;;;;50.90;30.77;;;3.50;99.90;;;;;;4944876;28;20041;-76
2022/03/02 08:38:50;;;;;;;50.33;30.13;;;3.50;99.90;;;;;;4923267;28;274641;-75
2022/03/02 08:41:18;;;;;;;49.67;31.02;;;3.60;99.90;;;;;;4931454;28;20563;-76
2022/03/02 08:43:46;;;;;;;51.05;31.33;;;3.60;99.90;;;;;;4941578;28;256824;-75
2022/03/02 08:46:13;;;;;;;50.40;30.98;;;3.60;99.90;;;;;;4943206;28;20102;-76
2022/03/02 08:48:40;;;;;;;51.70;32.28;;;3.70;99.90;;;;;;4938200;28;20063;-75
2022/03/02 08:51:07;;;;;;;50.20;31.40;;;3.80;99.90;;;;;;4916967;28;88900;-75
2022/03/02 08:53:34;;;;;;;49.53;30.45;;;3.80;99.90;;;;;;4961142;28;20070;-76
2022/03/02 08:56:03;;;;;;;51.70;32.97;;;3.90;99.90;;;;;;4923215;28;52074;-76
2022/03/02 08:58:30;;;;;;;48.60;30.52;;;3.90;99.90;;;;;;4946444;28;20057;-76
2022/03/02 09:00:59;;;;;;;47.53;29.83;;;3.90;99.90;;;;;;4906446;28;194204;-76
2022/03/02 09:03:26;;;;;;;51.40;30.63;;;4.00;99.90;;;;;;4960363;28;20042;-76
2022/03/02 09:05:53;;;;;;;48.35;30.15;;;4.00;99.90;;;;;;4908967;28;179840;-76
2022/03/02 09:08:20;;;;;;;46.75;28.85;;;4.10;99.90;;;;;;4960658;28;20078;-76
2022/03/02 09:10:46;;;;;;;49.10;30.27;;;4.10;99.90;;;;;;4915459;28;20058;-76
2022/03/02 09:13:12;;;;;;;47.20;29.50;;;4.20;99.90;;;;;;4940906;28;20051;-76
2022/03/02 09:15:40;;;;;;;50.67;30.30;;;4.20;99.90;;;;;;4951411;28;198548;-75
2022/03/02 09:18:07;;;;;;;49.22;29.67;;;4.30;99.90;;;;;;4985492;28;20058;-76
2022/03/02 09:20:34;;;;;;;48.13;28.08;;;4.30;99.90;;;;;;4921038;28;223307;-76
2022/03/02 09:23:04;;;;;;;44.22;29.15;;;4.40;99.90;;;;;;4957502;28;20042;-76
2022/03/02 09:25:31;;;;;;;45.70;29.75;;;4.50;99.90;;;;;;4924894;28;193532;-76
2022/03/02 09:27:58;;;;;;;45.50;28.05;;;4.50;99.90;;;;;;4963943;28;20047;-76
2022/03/02 09:30:24;;;;;;;43.75;27.77;;;4.60;99.90;;;;;;4935856;28;259447;-76
2022/03/02 09:32:53;;;;;;;44.90;28.20;;;4.60;99.90;;;;;;4960345;28;20058;-76
2022/03/02 09:35:21;;;;;;;43.75;29.80;;;4.70;99.90;;;;;;4923929;28;83698;-76
2022/03/02 09:37:49;;;;;;;44.85;28.10;;;4.80;99.90;;;;;;4931450;28;20064;-80
2022/03/02 09:40:25;;;;;;;41.35;26.83;;;4.90;99.90;;;;;;4930088;28;255346;-80
2022/03/02 09:42:57;;;;;;;42.22;26.27;;;5.00;99.90;;;;;;4954833;28;20043;-81
2022/03/02 09:45:25;;;;;;;49.75;26.77;;;5.00;99.90;;;;;;4929887;28;20042;-81
2022/03/02 09:48:03;;;;;;;37.75;24.35;;;5.10;99.90;;;;;;4937901;28;20047;-80
2022/03/02 09:50:35;;;;;;;40.10;27.63;;;5.10;99.90;;;;;;4915399;28;162355;-80
2022/03/02 09:53:08;;;;;;;44.80;27.48;;;5.20;99.90;;;;;;4955127;28;20054;-82
2022/03/02 09:55:36;;;;;;;42.10;26.42;;;5.30;99.90;;;;;;4938626;28;45417;-81
2022/03/02 09:58:03;;;;;;;39.53;26.60;;;5.30;99.90;;;;;;4962054;28;20067;-81
2022/03/02 10:00:30;;;;;;;41.95;25.80;;;5.30;99.90;;;;;;4920023;28;24411;-82
2022/03/02 10:02:59;;;;;;;42.35;26.30;;;5.40;99.90;;;;;;4938548;28;20448;-82
2022/03/02 10:05:31;;;;;;;39.20;25.20;;;5.50;99.90;;;;;;4914553;28;230054;-80
2022/03/02 10:08:01;;;;;;;38.28;24.90;;;5.50;99.90;;;;;;4951952;28;20058;-81
2022/03/02 10:10:33;;;;;;;38.72;23.75;;;5.60;99.90;;;;;;4938125;28;91825;-80
2022/03/02 10:13:11;;;;;;;42.33;25.10;;;5.70;99.90;;;;;;4942008;28;20059;-80
2022/03/02 10:15:39;;;;;;;37.72;24.60;;;5.80;99.90;;;;;;4929250;28;226721;-82
2022/03/02 10:18:08;;;;;;;39.05;24.38;;;5.80;99.90;;;;;;4956120;28;20051;-81
2022/03/02 10:20:36;;;;;;;41.08;24.23;;;5.90;99.90;;;;;;4933494;28;156923;-82
2022/03/02 10:23:22;;;;;;;35.20;22.65;;;5.90;99.90;;;;;;4958488;28;20047;-82
2022/03/02 10:26:00;;;;;;;35.50;22.15;;;6.00;99.90;;;;;;4926926;28;69991;-80
2022/03/02 10:28:43;;;;;;;35.75;22.25;;;6.00;99.90;;;;;;4971231;28;20035;-82
2022/03/02 10:31:26;;;;;;;36.30;22.42;;;6.10;99.90;;;;;;4926675;28;20054;-81
2022/03/02 10:33:54;;;;;;;34.65;20.42;;;6.10;99.90;;;;;;4939182;28;264259;-82
2022/03/02 10:36:26;;;;;;;34.55;20.95;;;6.20;99.90;;;;;;4929439;28;20102;-83
2022/03/02 10:39:03;;;;;;;32.70;19.48;;;6.20;99.90;;;;;;4921901;28;258409;-81
2022/03/02 10:41:35;;;;;;;33.50;20.02;;;6.30;99.90;;;;;;4937310;28;20050;-80
2022/03/02 10:44:15;;;;;;;29.37;20.07;;;6.40;99.90;;;;;;4940827;28;247057;-82
2022/03/02 10:46:46;;;;;;;33.75;21.67;;;6.50;99.90;;;;;;4907327;28;20163;-82
2022/03/02 10:49:19;;;;;;;34.05;20.95;;;6.60;99.90;;;;;;4925626;28;172469;-80
2022/03/02 10:51:45;;;;;;;33.20;20.95;;;6.60;99.90;;;;;;4938439;28;20050;-82
2022/03/02 10:54:20;;;;;;;33.55;20.95;;;6.60;99.90;;;;;;4946391;28;106418;-82
2022/03/02 10:56:51;;;;;;;39.30;22.77;;;6.70;99.90;;;;;;4912047;28;20365;-80
2022/03/02 10:59:23;;;;;;;33.10;22.08;;;6.80;99.90;;;;;;4922891;28;147116;-81
2022/03/02 11:01:51;;;;;;;33.80;21.90;;;6.80;99.90;;;;;;4965134;28;20058;-80
2022/03/02 11:04:19;;;;;;;32.55;21.85;;;6.90;99.90;;;;;;4906678;28;150032;-81
2022/03/02 11:06:46;;;;;;;35.53;22.42;;;7.00;99.90;;;;;;4937638;28;20461;-81
2022/03/02 11:09:16;;;;;;;33.55;22.35;;;7.10;99.90;;;;;;4944921;28;120558;-80
2022/03/02 11:11:42;;;;;;;38.80;23.73;;;7.10;99.90;;;;;;4932966;28;20044;-81
2022/03/02 11:14:09;;;;;;;35.50;22.17;;;7.20;99.90;;;;;;4927528;28;94608;-78
2022/03/02 11:16:36;;;;;;;34.35;22.30;;;7.40;99.90;;;;;;4935043;28;20050;-79
2022/03/02 11:19:16;;;;;;;34.23;22.90;;;7.60;99.90;;;;;;4931917;28;272276;-78
2022/03/02 11:21:44;;;;;;;35.70;23.15;;;8.20;99.90;;;;;;4914814;28;20062;-78
2022/03/02 11:24:17;;;;;;;33.35;22.33;;;8.80;99.90;;;;;;4959631;28;20640;-78
2022/03/02 11:26:48;;;;;;;31.10;21.83;;;9.50;99.90;;;;;;4923467;28;20047;-78
2022/03/02 11:29:17;;;;;;;30.70;22.92;;;10.30;99.90;;;;;;4929032;28;134426;-78
2022/03/02 11:31:45;;;;;;;34.58;22.70;;;11.00;99.90;;;;;;4941395;28;20064;-80
2022/03/02 11:34:16;;;;;;;32.75;23.05;;;11.50;99.90;;;;;;4937679;28;194878;-81
2022/03/02 11:36:48;;;;;;;30.48;21.77;;;12.00;99.90;;;;;;4916008;28;20059;-80
2022/03/02 11:39:16;;;;;;;33.05;21.33;;;12.50;99.50;;;;;;4945382;28;156618;-79
2022/03/02 11:41:45;;;;;;;28.60;21.20;;;12.90;99.20;;;;;;4952462;28;20065;-81
2022/03/02 11:44:32;;;;;;;29.58;21.15;;;13.30;97.60;;;;;;4945307;28;170161;-78
2022/03/02 11:47:00;;;;;;;29.13;20.05;;;13.90;96.90;;;;;;4888273;28;20051;-78
2022/03/02 11:49:48;;;;;;;27.58;19.52;;;14.40;97.20;;;;;;4890064;28;86068;-79
2022/03/02 11:52:22;;;;;;;29.40;20.52;;;15.10;94.30;;;;;;4930517;28;20058;-80
2022/03/02 11:54:50;;;;;;;27.60;19.85;;;15.50;93.10;;;;;;4924678;28;103578;-79
2022/03/02 11:57:17;;;;;;;26.58;20.27;;;16.10;94.00;;;;;;4939177;28;20065;-80
2022/03/02 11:59:45;;;;;;;28.83;20.38;;;16.50;91.20;;;;;;4902010;28;149463;-80
2022/03/02 12:02:17;;;;;;;25.83;20.15;;;16.50;87.50;;;;;;4958298;28;20535;-80
2022/03/02 12:04:59;;;;;;;26.48;19.13;;;16.50;81.20;;;;;;4897875;28;124455;-79
2022/03/02 12:07:39;;;;;;;26.17;19.40;;;16.60;78.60;;;;;;4942830;28;20067;-78
2022/03/02 12:10:24;;;;;;;26.77;19.40;;;16.70;74.00;;;;;;4914687;28;233900;-79
2022/03/02 12:12:53;;;;;;;24.52;19.23;;;17.00;76.90;;;;;;4945136;28;20064;-82
2022/03/02 12:15:21;;;;;;;27.05;21.25;;;17.10;76.50;;;;;;4935466;28;102667;-80
2022/03/02 12:17:49;;;;;;;25.08;19.23;;;17.20;70.50;;;;;;4973790;28;20524;-80
2022/03/02 12:20:20;;;;;;;24.25;19.23;;;17.30;71.50;;;;;;4898289;28;215904;-81
2022/03/02 12:22:48;;;;;;;24.35;19.35;;;17.50;70.70;;;;;;4952233;28;20049;-78
2022/03/02 12:25:18;;;;;;;25.10;19.73;;;17.70;66.90;;;;;;4900705;28;87202;-79
2022/03/02 12:28:03;;;;;;;24.77;18.98;;;18.00;67.00;;;;;;4958064;28;20059;-78
2022/03/02 12:30:32;;;;;;;24.75;18.77;;;18.20;62.20;;;;;;4902443;28;129303;-80
2022/03/02 12:32:58;;;;;;;25.85;18.17;;;18.40;64.60;;;;;;4949889;28;20459;-78
2022/03/02 12:35:26;;;;;;;23.70;18.58;;;18.50;63.30;;;;;;4906547;28;193060;-79
2022/03/02 12:37:55;;;;;;;26.60;18.80;;;18.80;61.60;;;;;;4950965;28;20070;-79